createdAt,value
2018-03-25T00:00:00.407Z,81.20
2018-03-25T00:01:31.612Z,81.11
2018-03-25T00:02:58.747Z,81.21
2018-03-25T00:04:21.884Z,81.18
2018-03-25T00:05:48.959Z,81.41
2018-03-25T00:07:16.124Z,81.65
2018-03-25T00:08:46.982Z,81.79
2018-03-25T00:10:10.070Z,81.76
2018-03-25T00:11:37.017Z,81.52
2018-03-25T00:13:07.987Z,81.64
2018-03-25T00:14:35.050Z,82.69
2018-03-25T00:16:02.018Z,81.86
2018-03-25T00:17:29.148Z,81.58
2018-03-25T00:18:52.346Z,81.26
2018-03-25T00:20:19.465Z,80.89
2018-03-25T00:21:46.619Z,81.04
2018-03-25T00:23:17.811Z,81.28
2018-03-25T00:24:44.854Z,81.22
2018-03-25T00:26:07.829Z,81.29
2018-03-25T00:27:34.820Z,81.50
2018-03-25T00:29:01.981Z,81.49
2018-03-25T00:30:33.341Z,81.22
2018-03-25T00:31:56.454Z,81.12
2018-03-25T00:33:23.610Z,80.94
2018-03-25T00:34:50.778Z,81.30
2018-03-25T00:36:21.662Z,81.39
2018-03-25T00:37:48.711Z,81.44
2018-03-25T00:39:15.681Z,81.28
2018-03-25T00:40:38.862Z,81.13
2018-03-25T00:42:05.899Z,81.60
2018-03-25T00:43:33.036Z,81.46
2018-03-25T00:45:00.289Z,81.24
2018-03-25T00:46:31.706Z,80.89
2018-03-25T00:47:58.719Z,81.03
2018-03-25T00:49:21.955Z,80.97
2018-03-25T00:50:53.090Z,80.82
2018-03-25T00:52:16.127Z,81.14
2018-03-25T00:53:43.181Z,81.19
2018-03-25T00:55:10.260Z,82.31
2018-03-25T00:56:37.340Z,82.05
2018-03-25T00:58:08.332Z,81.79
2018-03-25T00:59:31.442Z,82.14
2018-03-25T01:01:02.533Z,81.82
2018-03-25T01:02:25.581Z,81.62
2018-03-25T01:03:52.543Z,80.99
2018-03-25T01:05:19.466Z,81.67
2018-03-25T01:06:50.669Z,82.22
2018-03-25T01:08:13.759Z,82.61
2018-03-25T01:09:44.684Z,82.84
2018-03-25T01:11:07.917Z,82.94
2018-03-25T01:12:34.921Z,83.37
2018-03-25T01:14:06.132Z,83.36
2018-03-25T01:15:29.182Z,83.82
2018-03-25T01:17:00.405Z,83.52
2018-03-25T01:18:23.575Z,83.73
2018-03-25T01:19:50.586Z,83.52
2018-03-25T01:21:17.399Z,83.86
2018-03-25T01:22:48.261Z,84.15
2018-03-25T01:24:15.384Z,84.06
2018-03-25T01:25:38.532Z,83.93
2018-03-25T01:27:05.407Z,83.86
2018-03-25T01:28:32.472Z,83.80
2018-03-25T01:29:59.573Z,83.66
2018-03-25T01:31:26.631Z,83.65
2018-03-25T01:32:53.879Z,83.61
2018-03-25T01:34:20.916Z,83.59
2018-03-25T01:35:48.151Z,83.36
2018-03-25T01:37:15.270Z,83.54
2018-03-25T01:38:42.547Z,83.50
2018-03-25T01:40:09.662Z,83.31
2018-03-25T01:41:36.609Z,83.32
2018-03-25T01:43:03.742Z,83.45
2018-03-25T01:44:34.870Z,83.17
2018-03-25T01:46:02.090Z,82.90
2018-03-25T01:47:29.269Z,83.22
2018-03-25T01:48:56.312Z,83.06
2018-03-25T01:50:19.486Z,82.92
2018-03-25T01:51:46.767Z,83.16
2018-03-25T01:53:13.954Z,82.95
2018-03-25T01:54:45.171Z,82.95
2018-03-25T01:56:12.214Z,82.89
2018-03-25T01:57:35.502Z,82.73
2018-03-25T01:59:06.599Z,82.78
2018-03-25T02:00:33.792Z,82.53
2018-03-25T02:01:56.919Z,82.70
2018-03-25T02:03:27.964Z,82.75
2018-03-25T02:04:51.036Z,82.66
2018-03-25T02:06:22.272Z,82.30
2018-03-25T02:07:49.368Z,82.75
2018-03-25T02:09:16.480Z,82.94
2018-03-25T02:10:39.513Z,82.97
2018-03-25T02:12:10.528Z,82.87
2018-03-25T02:13:33.794Z,82.85
2018-03-25T02:15:00.718Z,82.70
2018-03-25T02:16:31.897Z,82.74
2018-03-25T02:17:54.936Z,82.71
2018-03-25T02:19:22.170Z,82.69
2018-03-25T02:20:53.206Z,82.68
2018-03-25T02:22:20.324Z,82.64
2018-03-25T02:23:47.229Z,82.52
2018-03-25T02:25:10.481Z,82.53
2018-03-25T02:26:41.575Z,82.48
2018-03-25T02:28:04.822Z,82.48
2018-03-25T02:29:35.919Z,82.49
2018-03-25T02:31:03.193Z,82.44
2018-03-25T02:32:30.193Z,82.34
2018-03-25T02:33:53.350Z,82.23
2018-03-25T02:35:24.452Z,82.20
2018-03-25T02:36:47.708Z,82.14
2018-03-25T02:38:18.753Z,82.31
2018-03-25T02:39:45.828Z,82.37
2018-03-25T02:41:09.073Z,82.19
2018-03-25T02:42:40.200Z,82.29
2018-03-25T02:44:03.221Z,82.25
2018-03-25T02:45:30.427Z,82.28
2018-03-25T02:47:01.547Z,82.24
2018-03-25T02:48:28.813Z,82.09
2018-03-25T02:49:51.897Z,82.21
2018-03-25T02:51:19.049Z,82.08
2018-03-25T02:52:50.289Z,81.90
2018-03-25T02:54:13.495Z,82.00
2018-03-25T02:55:44.661Z,82.10
2018-03-25T02:57:07.744Z,82.08
2018-03-25T02:58:38.922Z,82.01
2018-03-25T03:00:06.238Z,81.93
2018-03-25T03:01:33.450Z,81.95
2018-03-25T03:03:00.541Z,82.05
2018-03-25T03:04:27.542Z,81.96
2018-03-25T03:05:54.594Z,81.92
2018-03-25T03:07:17.788Z,81.96
2018-03-25T03:08:48.764Z,82.06
2018-03-25T03:10:15.895Z,81.91
2018-03-25T03:11:43.081Z,81.93
2018-03-25T03:13:06.360Z,81.95
2018-03-25T03:14:33.352Z,81.82
2018-03-25T03:16:04.295Z,82.05
2018-03-25T03:17:31.435Z,81.97
2018-03-25T03:18:58.710Z,81.81
2018-03-25T03:20:21.941Z,81.77
2018-03-25T03:21:52.965Z,81.83
2018-03-25T03:23:16.036Z,81.67
2018-03-25T03:24:43.244Z,81.71
2018-03-25T03:26:10.437Z,81.73
2018-03-25T03:27:37.521Z,81.66
2018-03-25T03:29:04.678Z,81.75
2018-03-25T03:30:31.792Z,81.92
2018-03-25T03:32:02.902Z,81.93
2018-03-25T03:33:30.010Z,81.94
2018-03-25T03:34:53.189Z,81.81
2018-03-25T03:36:20.449Z,81.91
2018-03-25T03:37:51.309Z,81.93
2018-03-25T03:39:18.610Z,81.92
2018-03-25T03:40:41.701Z,81.95
2018-03-25T03:42:08.863Z,81.89
2018-03-25T03:43:35.969Z,81.71
2018-03-25T03:45:03.074Z,81.82
2018-03-25T03:46:30.315Z,81.68
2018-03-25T03:47:57.460Z,81.88
2018-03-25T03:49:28.483Z,81.86
2018-03-25T03:50:55.565Z,81.80
2018-03-25T03:52:22.577Z,81.78
2018-03-25T03:53:49.721Z,81.90
2018-03-25T03:55:16.890Z,81.95
2018-03-25T03:56:39.970Z,81.94
2018-03-25T03:58:10.960Z,81.90
2018-03-25T03:59:33.972Z,81.86
2018-03-25T04:01:01.029Z,81.93
2018-03-25T04:02:28.076Z,81.86
2018-03-25T04:03:58.972Z,81.95
2018-03-25T04:05:22.112Z,81.92
2018-03-25T04:06:49.317Z,82.02
2018-03-25T04:08:16.414Z,82.05
2018-03-25T04:09:43.592Z,81.96
2018-03-25T04:11:10.585Z,82.12
2018-03-25T04:12:41.751Z,82.13
2018-03-25T04:14:08.823Z,82.01
2018-03-25T04:15:32.007Z,82.12
2018-03-25T04:16:59.268Z,82.15
2018-03-25T04:18:26.176Z,82.20
2018-03-25T04:19:57.440Z,82.30
2018-03-25T04:21:20.413Z,82.32
2018-03-25T04:22:51.398Z,82.29
2018-03-25T04:24:18.394Z,82.25
2018-03-25T04:25:45.498Z,82.36
2018-03-25T04:27:12.452Z,82.21
2018-03-25T04:28:39.428Z,82.29
2018-03-25T04:30:06.571Z,82.41
2018-03-25T04:31:29.487Z,82.25
2018-03-25T04:32:56.559Z,82.28
2018-03-25T04:34:27.677Z,82.29
2018-03-25T04:35:55.055Z,82.33
2018-03-25T04:37:21.979Z,82.35
2018-03-25T04:38:48.914Z,82.35
2018-03-25T04:40:16.116Z,82.28
2018-03-25T04:41:39.336Z,82.34
2018-03-25T04:43:09.827Z,82.43
2018-03-25T04:44:33.107Z,82.37
2018-03-25T04:46:04.277Z,82.33
2018-03-25T04:47:27.463Z,82.29
2018-03-25T04:48:54.689Z,82.17
2018-03-25T04:50:21.887Z,82.18
2018-03-25T04:51:52.956Z,82.10
2018-03-25T04:53:16.049Z,81.97
2018-03-25T04:54:47.136Z,82.08
2018-03-25T04:56:10.359Z,81.93
2018-03-25T04:57:37.410Z,82.08
2018-03-25T04:59:04.538Z,82.10
2018-03-25T05:00:31.579Z,82.05
2018-03-25T05:02:02.699Z,81.98
2018-03-25T05:03:29.941Z,82.08
2018-03-25T05:04:57.238Z,81.99
2018-03-25T05:06:20.459Z,82.23
2018-03-25T05:07:51.489Z,82.47
2018-03-25T05:09:14.567Z,82.30
2018-03-25T05:10:45.733Z,82.43
2018-03-25T05:12:12.712Z,82.19
2018-03-25T05:13:39.732Z,82.70
2018-03-25T05:15:02.872Z,82.92
2018-03-25T05:16:33.851Z,82.92
2018-03-25T05:18:01.107Z,83.33
2018-03-25T05:19:28.283Z,83.23
2018-03-25T05:20:55.337Z,83.05
2018-03-25T05:22:22.483Z,83.01
2018-03-25T05:23:45.474Z,82.86
2018-03-25T05:25:12.562Z,83.05
2018-03-25T05:26:39.469Z,83.02
2018-03-25T05:28:10.597Z,83.03
2018-03-25T05:29:33.747Z,83.04
2018-03-25T05:31:04.960Z,83.13
2018-03-25T05:32:32.054Z,83.04
2018-03-25T05:33:55.259Z,82.95
2018-03-25T05:35:26.387Z,83.29
2018-03-25T05:36:49.565Z,83.24
2018-03-25T05:38:20.551Z,83.42
2018-03-25T05:39:47.821Z,83.23
2018-03-25T05:41:10.902Z,83.62
2018-03-25T05:42:38.155Z,83.93
2018-03-25T05:44:09.348Z,84.05
2018-03-25T05:45:36.555Z,84.18
2018-03-25T05:46:59.793Z,84.33
2018-03-25T05:48:26.876Z,84.44
2018-03-25T05:49:54.253Z,84.56
2018-03-25T05:51:25.350Z,84.38
2018-03-25T05:52:48.548Z,84.51
2018-03-25T05:54:15.632Z,84.77
2018-03-25T05:55:46.681Z,84.87
2018-03-25T05:57:09.730Z,84.94
2018-03-25T05:58:36.754Z,84.89
2018-03-25T06:00:03.957Z,84.71
2018-03-25T06:01:31.247Z,84.55
2018-03-25T06:02:58.509Z,84.18
2018-03-25T06:04:25.570Z,84.46
2018-03-25T06:05:52.951Z,84.42
2018-03-25T06:07:24.134Z,84.35
2018-03-25T06:08:51.201Z,83.93
2018-03-25T06:10:18.492Z,84.59
2018-03-25T06:11:41.694Z,84.87
2018-03-25T06:13:08.734Z,84.58
2018-03-25T06:14:35.825Z,84.24
2018-03-25T06:16:02.944Z,84.43
2018-03-25T06:17:30.101Z,84.23
2018-03-25T06:19:01.143Z,83.49
2018-03-25T06:20:23.968Z,83.26
2018-03-25T06:21:55.083Z,82.91
2018-03-25T06:23:22.230Z,82.44
2018-03-25T06:24:49.345Z,82.47
2018-03-25T06:26:12.598Z,82.39
2018-03-25T06:27:43.686Z,82.25
2018-03-25T06:29:10.573Z,82.26
2018-03-25T06:30:37.717Z,82.38
2018-03-25T06:32:04.833Z,82.59
2018-03-25T06:33:28.017Z,82.47
2018-03-25T06:34:59.047Z,82.05
2018-03-25T06:36:26.343Z,81.59
2018-03-25T06:37:49.419Z,81.22
2018-03-25T06:39:16.628Z,80.27
2018-03-25T06:40:43.714Z,80.09
2018-03-25T06:42:14.909Z,79.94
2018-03-25T06:43:41.917Z,79.54
2018-03-25T06:45:05.231Z,79.31
2018-03-25T06:46:36.577Z,78.83
2018-03-25T06:47:59.848Z,78.67
2018-03-25T06:49:27.267Z,78.94
2018-03-25T06:50:58.305Z,78.67
2018-03-25T06:52:25.463Z,78.81
2018-03-25T06:53:48.688Z,78.81
2018-03-25T06:55:15.760Z,78.49
2018-03-25T06:56:46.850Z,78.85
2018-03-25T06:58:14.028Z,78.89
2018-03-25T07:01:04.296Z,77.31
2018-03-25T07:02:35.173Z,77.08
2018-03-25T07:04:02.273Z,77.68
2018-03-25T07:05:29.442Z,77.94
2018-03-25T07:06:56.362Z,77.58
2018-03-25T07:08:23.663Z,77.84
2018-03-25T07:09:46.784Z,78.04
2018-03-25T07:11:13.761Z,77.94
2018-03-25T07:12:40.855Z,78.49
2018-03-25T07:14:07.995Z,78.47
2018-03-25T07:15:38.972Z,78.73
2018-03-25T07:17:06.079Z,78.92
2018-03-25T07:18:29.363Z,78.51
2018-03-25T07:20:00.544Z,77.80
2018-03-25T07:21:23.632Z,77.75
2018-03-25T07:22:54.800Z,78.52
2018-03-25T07:24:21.928Z,78.63
2018-03-25T07:25:45.058Z,78.66
2018-03-25T07:27:12.350Z,78.51
2018-03-25T07:28:43.380Z,79.24
2018-03-25T07:30:06.215Z,79.43
2018-03-25T07:31:37.508Z,80.09
2018-03-25T07:33:04.789Z,79.42
2018-03-25T07:34:28.027Z,78.86
2018-03-25T07:35:59.031Z,78.91
2018-03-25T07:37:26.135Z,79.18
2018-03-25T07:38:53.429Z,78.62
2018-03-25T07:40:20.368Z,78.93
2018-03-25T07:41:43.501Z,79.40
2018-03-25T07:43:14.562Z,80.60
2018-03-25T07:44:41.712Z,80.97
2018-03-25T07:46:08.841Z,80.32
2018-03-25T07:47:31.987Z,79.59
2018-03-25T07:49:03.197Z,80.00
2018-03-25T07:50:26.458Z,79.90
2018-03-25T07:51:53.775Z,79.99
2018-03-25T07:53:25.050Z,79.97
2018-03-25T07:54:52.194Z,80.42
2018-03-25T07:56:15.453Z,80.46
2018-03-25T07:57:46.493Z,80.63
2018-03-25T07:59:13.720Z,80.08
2018-03-25T08:00:40.768Z,80.13
2018-03-25T08:02:03.989Z,79.62
2018-03-25T08:03:35.263Z,79.90
2018-03-25T08:05:02.507Z,80.91
2018-03-25T08:06:29.469Z,81.07
2018-03-25T08:07:52.527Z,80.90
2018-03-25T08:09:19.643Z,80.98
2018-03-25T08:10:50.750Z,81.45
2018-03-25T08:12:17.991Z,81.51
2018-03-25T08:13:41.148Z,81.56
2018-03-25T08:15:12.312Z,80.86
2018-03-25T08:16:39.667Z,80.47
2018-03-25T08:18:03.049Z,80.98
2018-03-25T08:19:30.309Z,81.47
2018-03-25T08:20:57.663Z,81.02
2018-03-25T08:22:24.969Z,80.81
2018-03-25T08:23:52.181Z,80.56
2018-03-25T08:25:19.178Z,80.34
2018-03-25T08:26:46.526Z,80.66
2018-03-25T08:28:17.684Z,80.62
2018-03-25T08:29:40.817Z,80.15
2018-03-25T08:31:07.805Z,78.21
2018-03-25T08:32:35.055Z,78.29
2018-03-25T08:34:06.275Z,78.33
2018-03-25T08:35:33.776Z,78.18
2018-03-25T08:36:56.859Z,78.98
2018-03-25T08:38:24.253Z,79.00
2018-03-25T08:39:51.507Z,78.97
2018-03-25T08:41:22.684Z,77.88
2018-03-25T08:42:45.873Z,76.78
2018-03-25T08:44:17.146Z,76.59
2018-03-25T08:45:40.554Z,76.40
2018-03-25T08:47:11.664Z,75.30
2018-03-25T08:48:35.112Z,75.22
2018-03-25T08:50:06.245Z,75.78
2018-03-25T08:51:29.348Z,76.35
2018-03-25T08:52:56.455Z,75.96
2018-03-25T08:54:27.792Z,76.11
2018-03-25T08:55:51.012Z,75.25
2018-03-25T08:57:18.176Z,74.82
2018-03-25T08:58:49.472Z,74.31
2018-03-25T09:00:16.679Z,73.47
2018-03-25T09:01:39.929Z,73.79
2018-03-25T09:03:07.050Z,73.50
2018-03-25T09:04:38.358Z,74.33
2018-03-25T09:06:05.609Z,75.07
2018-03-25T09:07:28.869Z,74.19
2018-03-25T09:08:56.255Z,72.81
2018-03-25T09:10:23.550Z,73.40
2018-03-25T09:11:50.792Z,73.10
2018-03-25T09:13:18.115Z,73.16
2018-03-25T09:14:45.281Z,72.33
2018-03-25T09:16:12.484Z,72.73
2018-03-25T09:17:43.559Z,74.17
2018-03-25T09:19:10.650Z,73.36
2018-03-25T09:20:37.748Z,73.90
2018-03-25T09:22:05.140Z,72.10
2018-03-25T09:23:28.456Z,72.58
2018-03-25T09:24:55.803Z,71.94
2018-03-25T09:26:27.124Z,71.07
2018-03-25T09:27:54.478Z,71.27
2018-03-25T09:29:17.718Z,71.89
2018-03-25T09:30:45.029Z,69.50
2018-03-25T09:32:12.358Z,69.55
2018-03-25T09:33:43.235Z,70.22
2018-03-25T09:35:06.527Z,70.11
2018-03-25T09:36:37.896Z,71.91
2018-03-25T09:38:04.981Z,70.33
2018-03-25T09:39:32.333Z,71.81
2018-03-25T09:40:55.561Z,72.01
2018-03-25T09:42:22.781Z,73.44
2018-03-25T09:43:49.895Z,71.14
2018-03-25T09:45:17.111Z,70.67
2018-03-25T09:46:48.299Z,70.95
2018-03-25T09:48:11.581Z,71.09
2018-03-25T09:49:38.851Z,70.55
2018-03-25T09:51:06.057Z,69.87
2018-03-25T09:52:33.428Z,69.69
2018-03-25T09:54:00.720Z,70.19
2018-03-25T09:55:27.947Z,70.86
2018-03-25T09:56:55.265Z,70.20
2018-03-25T09:58:22.721Z,70.81
2018-03-25T09:59:50.092Z,70.82
2018-03-25T10:01:21.361Z,68.80
2018-03-25T10:02:44.670Z,69.66
2018-03-25T10:04:11.845Z,70.58
2018-03-25T10:05:39.210Z,68.88
2018-03-25T10:07:06.355Z,70.11
2018-03-25T10:08:33.700Z,66.34
2018-03-25T10:10:04.922Z,64.87
2018-03-25T10:11:32.307Z,67.46
2018-03-25T10:12:55.584Z,65.22
2018-03-25T10:14:22.655Z,67.16
2018-03-25T10:15:49.935Z,63.05
2018-03-25T10:17:17.138Z,61.84
2018-03-25T10:18:44.512Z,62.96
2018-03-25T10:20:15.588Z,64.66
2018-03-25T10:21:42.801Z,64.58
2018-03-25T10:23:10.082Z,65.98
2018-03-25T10:24:33.418Z,65.09
2018-03-25T10:26:00.742Z,63.52
2018-03-25T10:27:28.100Z,63.57
2018-03-25T10:28:55.450Z,63.76
2018-03-25T10:30:26.712Z,63.56
2018-03-25T10:31:49.941Z,62.20
2018-03-25T10:33:17.175Z,62.66
2018-03-25T10:34:44.488Z,62.49
2018-03-25T10:36:11.804Z,63.01
2018-03-25T10:37:39.125Z,63.58
2018-03-25T10:39:06.296Z,62.77
2018-03-25T10:40:33.410Z,58.39
2018-03-25T10:42:04.608Z,60.27
2018-03-25T10:43:28.009Z,61.67
2018-03-25T10:44:59.135Z,61.64
2018-03-25T10:46:22.479Z,60.98
2018-03-25T10:47:49.908Z,60.43
2018-03-25T10:49:17.148Z,60.42
2018-03-25T10:50:44.416Z,60.86
2018-03-25T10:52:11.783Z,60.02
2018-03-25T10:53:43.039Z,58.13
2018-03-25T10:55:10.333Z,57.95
2018-03-25T10:56:37.544Z,59.89
2018-03-25T10:58:00.781Z,58.49
2018-03-25T10:59:32.186Z,57.30
2018-03-25T11:00:55.532Z,58.98
2018-03-25T11:02:27.952Z,60.44
2018-03-25T11:03:50.171Z,60.88
2018-03-25T11:05:17.593Z,61.09
2018-03-25T11:06:44.937Z,59.05
2018-03-25T11:08:12.421Z,57.49
2018-03-25T11:09:39.688Z,56.89
2018-03-25T11:11:06.857Z,56.56
2018-03-25T11:12:34.268Z,55.05
2018-03-25T11:14:05.528Z,56.84
2018-03-25T11:15:28.900Z,58.01
2018-03-25T11:16:56.152Z,55.59
2018-03-25T11:18:23.608Z,54.06
2018-03-25T11:19:51.057Z,56.19
2018-03-25T11:21:18.354Z,52.98
2018-03-25T11:22:45.769Z,53.23
2018-03-25T11:24:13.110Z,53.95
2018-03-25T11:25:40.443Z,53.67
2018-03-25T11:27:07.655Z,53.00
2018-03-25T11:28:35.083Z,52.41
2018-03-25T11:30:06.490Z,53.64
2018-03-25T11:31:29.825Z,52.25
2018-03-25T11:32:57.093Z,51.72
2018-03-25T11:34:24.609Z,52.82
2018-03-25T11:35:51.963Z,52.30
2018-03-25T11:37:19.459Z,54.40
2018-03-25T11:38:46.522Z,55.31
2018-03-25T11:40:13.792Z,52.21
2018-03-25T11:41:40.913Z,50.65
2018-03-25T11:43:08.129Z,51.10
2018-03-25T11:44:35.413Z,53.67
2018-03-25T11:46:02.780Z,53.05
2018-03-25T11:47:30.225Z,53.64
2018-03-25T11:49:01.674Z,52.00
2018-03-25T11:50:29.027Z,51.84
2018-03-25T11:51:56.289Z,50.43
2018-03-25T11:53:19.686Z,51.83
2018-03-25T11:54:47.046Z,50.94
2018-03-25T11:56:14.357Z,52.09
2018-03-25T11:57:45.652Z,51.65
2018-03-25T11:59:08.972Z,51.72
2018-03-25T12:00:40.151Z,52.59
2018-03-25T12:02:03.426Z,52.49
2018-03-25T12:03:30.496Z,52.96
2018-03-25T12:04:57.955Z,52.42
2018-03-25T12:06:25.392Z,52.99
2018-03-25T12:07:56.649Z,53.97
2018-03-25T12:09:20.060Z,52.75
2018-03-25T12:10:47.373Z,52.24
2018-03-25T12:12:18.515Z,52.97
2018-03-25T12:13:41.822Z,52.37
2018-03-25T12:15:09.077Z,52.95
2018-03-25T12:16:36.284Z,49.65
2018-03-25T12:18:03.536Z,50.58
2018-03-25T12:19:30.854Z,51.10
2018-03-25T12:21:02.141Z,50.88
2018-03-25T12:22:29.616Z,51.06
2018-03-25T12:23:56.963Z,48.05
2018-03-25T12:25:20.264Z,47.89
2018-03-25T12:26:51.492Z,48.28
2018-03-25T12:28:18.769Z,46.34
2018-03-25T12:29:46.106Z,48.53
2018-03-25T12:31:13.401Z,49.82
2018-03-25T12:32:40.486Z,45.46
2018-03-25T12:34:03.858Z,47.96
2018-03-25T12:35:31.131Z,48.56
2018-03-25T12:36:58.510Z,46.00
2018-03-25T12:38:25.732Z,46.28
2018-03-25T12:39:53.270Z,45.06
2018-03-25T12:41:20.614Z,47.68
2018-03-25T12:42:52.092Z,47.84
2018-03-25T12:44:19.562Z,45.35
2018-03-25T12:45:42.796Z,45.99
2018-03-25T12:47:09.966Z,46.90
2018-03-25T12:48:37.244Z,45.91
2018-03-25T12:50:08.661Z,45.99
2018-03-25T12:51:36.072Z,47.25
2018-03-25T12:52:59.396Z,47.78
2018-03-25T12:54:30.779Z,47.54
2018-03-25T12:55:58.196Z,48.65
2018-03-25T12:57:21.210Z,45.86
2018-03-25T12:58:48.756Z,45.23
2018-03-25T13:00:20.128Z,45.56
2018-03-25T13:01:43.473Z,46.19
2018-03-25T13:03:10.946Z,47.51
2018-03-25T13:04:38.095Z,47.53
2018-03-25T13:06:05.520Z,44.68
2018-03-25T13:07:33.121Z,44.45
2018-03-25T13:09:00.261Z,46.94
2018-03-25T13:10:27.753Z,45.86
2018-03-25T13:11:55.150Z,46.76
2018-03-25T13:13:26.359Z,46.53
2018-03-25T13:14:49.765Z,46.78
2018-03-25T13:16:17.221Z,45.87
2018-03-25T13:17:44.419Z,45.39
2018-03-25T13:19:11.802Z,46.73
2018-03-25T13:20:39.031Z,44.54
2018-03-25T13:22:06.315Z,45.24
2018-03-25T13:23:33.687Z,43.95
2018-03-25T13:25:05.114Z,44.95
2018-03-25T13:26:32.574Z,45.07
2018-03-25T13:27:55.944Z,45.12
2018-03-25T13:29:27.144Z,48.80
2018-03-25T13:30:50.571Z,47.51
2018-03-25T13:32:18.027Z,47.26
2018-03-25T13:33:49.383Z,46.84
2018-03-25T13:35:12.678Z,48.11
2018-03-25T13:36:39.836Z,49.96
2018-03-25T13:38:06.984Z,50.37
2018-03-25T13:39:34.472Z,49.30
2018-03-25T13:41:01.836Z,49.88
2018-03-25T13:42:29.357Z,50.78
2018-03-25T13:43:56.638Z,48.63
2018-03-25T13:45:23.797Z,48.64
2018-03-25T13:46:51.207Z,49.85
2018-03-25T13:48:18.695Z,49.54
2018-03-25T13:49:46.126Z,51.27
2018-03-25T13:51:13.545Z,50.03
2018-03-25T13:52:44.736Z,50.40
2018-03-25T13:54:07.988Z,50.84
2018-03-25T13:55:35.120Z,50.98
2018-03-25T13:57:06.386Z,51.62
2018-03-25T13:58:33.837Z,51.18
2018-03-25T13:59:57.180Z,51.45
2018-03-25T14:01:28.519Z,51.97
2018-03-25T14:02:55.919Z,51.55
2018-03-25T14:04:23.337Z,53.41
2018-03-25T14:05:46.544Z,53.15
2018-03-25T14:07:13.712Z,55.02
2018-03-25T14:08:45.100Z,55.49
2018-03-25T14:10:08.340Z,55.78
2018-03-25T14:11:35.690Z,54.21
2018-03-25T14:13:02.890Z,54.70
2018-03-25T14:14:30.338Z,55.30
2018-03-25T14:15:57.745Z,55.56
2018-03-25T14:17:25.208Z,55.25
2018-03-25T14:18:56.546Z,54.89
2018-03-25T14:20:20.043Z,55.49
2018-03-25T14:21:51.248Z,55.83
2018-03-25T14:23:14.488Z,56.28
2018-03-25T14:24:41.623Z,56.00
2018-03-25T14:26:08.740Z,55.59
2018-03-25T14:27:40.262Z,55.08
2018-03-25T14:29:03.519Z,55.47
2018-03-25T14:30:34.720Z,55.54
2018-03-25T14:31:58.189Z,56.06
2018-03-25T14:33:25.538Z,55.69
2018-03-25T14:34:56.899Z,56.03
2018-03-25T14:36:19.851Z,55.78
2018-03-25T14:37:47.220Z,56.17
2018-03-25T14:39:14.513Z,57.67
2018-03-25T14:40:45.947Z,56.58
2018-03-25T14:42:09.247Z,56.70
2018-03-25T14:43:40.759Z,56.46
2018-03-25T14:45:04.154Z,56.65
2018-03-25T14:46:31.362Z,55.73
2018-03-25T14:48:02.617Z,56.97
2018-03-25T14:49:25.990Z,56.76
2018-03-25T14:50:57.171Z,56.47
2018-03-25T14:52:20.555Z,56.78
2018-03-25T14:53:47.748Z,57.67
2018-03-25T14:55:19.152Z,55.95
2018-03-25T14:56:46.572Z,55.73
2018-03-25T14:58:09.746Z,56.03
2018-03-25T14:59:36.773Z,55.94
2018-03-25T15:01:04.099Z,56.31
2018-03-25T15:02:31.504Z,55.99
2018-03-25T15:03:58.711Z,55.97
2018-03-25T15:05:30.024Z,56.47
2018-03-25T15:06:53.432Z,57.27
2018-03-25T15:08:20.743Z,57.20
2018-03-25T15:09:48.004Z,56.64
2018-03-25T15:11:15.381Z,55.53
2018-03-25T15:12:46.675Z,55.13
2018-03-25T15:14:13.807Z,57.36
2018-03-25T15:15:41.186Z,57.37
2018-03-25T15:17:04.209Z,57.85
2018-03-25T15:18:31.505Z,55.06
2018-03-25T15:20:02.920Z,55.74
2018-03-25T15:21:26.301Z,55.02
2018-03-25T15:22:53.764Z,55.27
2018-03-25T15:24:21.145Z,55.24
2018-03-25T15:25:48.492Z,55.69
2018-03-25T15:27:15.806Z,55.83
2018-03-25T15:28:43.172Z,56.38
2018-03-25T15:30:10.397Z,56.24
2018-03-25T15:31:37.587Z,55.45
2018-03-25T15:33:04.940Z,55.88
2018-03-25T15:34:36.297Z,55.85
2018-03-25T15:36:03.736Z,56.78
2018-03-25T15:37:26.991Z,56.79
2018-03-25T15:38:58.265Z,56.45
2018-03-25T15:40:25.583Z,56.28
2018-03-25T15:41:48.489Z,56.62
2018-03-25T15:43:15.808Z,57.05
2018-03-25T15:44:47.040Z,56.57
2018-03-25T15:46:10.202Z,56.92
2018-03-25T15:47:37.332Z,56.42
2018-03-25T15:49:08.532Z,55.68
2018-03-25T15:50:32.010Z,54.64
2018-03-25T15:52:03.154Z,54.80
2018-03-25T15:53:26.470Z,54.98
2018-03-25T15:54:57.762Z,54.46
2018-03-25T15:56:21.154Z,53.84
2018-03-25T15:57:48.624Z,53.55
2018-03-25T15:59:15.920Z,53.84
2018-03-25T16:00:43.210Z,53.27
2018-03-25T16:02:10.216Z,53.70
2018-03-25T16:03:37.300Z,54.24
2018-03-25T16:05:04.759Z,54.16
2018-03-25T16:06:32.128Z,54.24
2018-03-25T16:08:03.446Z,54.39
2018-03-25T16:09:26.635Z,54.05
2018-03-25T16:10:54.018Z,53.93
2018-03-25T16:12:21.421Z,53.47
2018-03-25T16:13:48.872Z,53.19
2018-03-25T16:15:16.223Z,54.18
2018-03-25T16:16:47.484Z,55.04
2018-03-25T16:18:14.821Z,54.30
2018-03-25T16:19:38.067Z,53.86
2018-03-25T16:21:05.191Z,55.63
2018-03-25T16:22:32.564Z,55.20
2018-03-25T16:23:59.864Z,54.86
2018-03-25T16:25:26.675Z,54.97
2018-03-25T16:26:57.843Z,55.71
2018-03-25T16:28:25.292Z,56.17
2018-03-25T16:29:48.628Z,55.65
2018-03-25T16:31:15.754Z,55.29
2018-03-25T16:32:46.701Z,55.64
2018-03-25T16:34:13.961Z,56.18
2018-03-25T16:35:40.878Z,55.68
2018-03-25T16:37:03.935Z,57.05
2018-03-25T16:38:31.156Z,56.59
2018-03-25T16:40:02.581Z,56.23
2018-03-25T16:41:25.846Z,56.49
2018-03-25T16:42:53.307Z,56.38
2018-03-25T16:44:24.707Z,57.39
2018-03-25T16:45:48.095Z,57.37
2018-03-25T16:47:15.464Z,58.24
2018-03-25T16:48:46.818Z,57.26
2018-03-25T16:50:10.088Z,57.15
2018-03-25T16:51:41.187Z,56.91
2018-03-25T16:53:04.531Z,58.00
2018-03-25T16:54:31.798Z,57.95
2018-03-25T16:55:59.028Z,57.53
2018-03-25T16:57:26.432Z,58.12
2018-03-25T16:58:53.808Z,58.59
2018-03-25T17:00:25.203Z,58.54
2018-03-25T17:01:52.597Z,57.78
2018-03-25T17:03:19.954Z,58.23
2018-03-25T17:04:43.060Z,58.81
2018-03-25T17:06:10.423Z,58.46
2018-03-25T17:07:41.525Z,59.36
2018-03-25T17:09:08.749Z,58.49
2018-03-25T17:10:32.295Z,59.33
2018-03-25T17:11:59.251Z,60.07
2018-03-25T17:13:26.766Z,58.33
2018-03-25T17:14:57.870Z,58.71
2018-03-25T17:16:21.270Z,59.02
2018-03-25T17:17:48.519Z,58.71
2018-03-25T17:19:19.534Z,58.43
2018-03-25T17:20:42.769Z,58.80
2018-03-25T17:22:10.132Z,59.59
2018-03-25T17:23:37.359Z,59.73
2018-03-25T17:25:08.720Z,60.09
2018-03-25T17:26:31.935Z,60.95
2018-03-25T17:28:03.257Z,60.41
2018-03-25T17:29:26.528Z,60.98
2018-03-25T17:30:53.953Z,60.38
2018-03-25T17:32:21.298Z,59.17
2018-03-25T17:33:48.616Z,60.33
2018-03-25T17:35:15.837Z,60.42
2018-03-25T17:36:43.100Z,60.60
2018-03-25T17:38:10.478Z,60.59
2018-03-25T17:39:37.697Z,60.84
2018-03-25T17:41:05.011Z,60.47
2018-03-25T17:42:36.285Z,60.04
2018-03-25T17:43:59.658Z,59.78
2018-03-25T17:45:27.012Z,59.85
2018-03-25T17:46:58.324Z,59.76
2018-03-25T17:48:25.652Z,60.48
2018-03-25T17:49:49.012Z,61.53
2018-03-25T17:51:20.190Z,62.06
2018-03-25T17:52:43.372Z,63.15
2018-03-25T17:54:14.317Z,61.28
2018-03-25T17:55:41.683Z,61.51
2018-03-25T17:57:05.169Z,61.82
2018-03-25T17:58:36.387Z,61.83
2018-03-25T17:59:59.654Z,61.94
2018-03-25T18:01:26.579Z,62.50
2018-03-25T18:02:58.017Z,63.22
2018-03-25T18:04:21.317Z,63.99
2018-03-25T18:05:48.753Z,64.69
2018-03-25T18:07:16.107Z,65.80
2018-03-25T18:08:43.462Z,65.46
2018-03-25T18:10:10.809Z,65.00
2018-03-25T18:11:42.060Z,65.72
2018-03-25T18:13:05.305Z,65.32
2018-03-25T18:14:36.710Z,64.55
2018-03-25T18:16:04.042Z,64.53
2018-03-25T18:17:34.105Z,64.20
2018-03-25T18:18:54.752Z,64.67
2018-03-25T18:20:22.073Z,64.69
2018-03-25T18:21:53.383Z,65.21
2018-03-25T18:23:20.760Z,64.21
2018-03-25T18:24:44.306Z,64.44
2018-03-25T18:26:15.563Z,64.94
2018-03-25T18:27:38.892Z,65.22
2018-03-25T18:29:06.192Z,65.03
2018-03-25T18:30:33.444Z,66.41
2018-03-25T18:32:00.653Z,67.98
2018-03-25T18:33:27.861Z,64.73
2018-03-25T18:34:55.378Z,64.53
2018-03-25T18:36:22.595Z,64.49
2018-03-25T18:37:49.734Z,64.70
2018-03-25T18:39:20.876Z,66.85
2018-03-25T18:40:44.175Z,68.73
2018-03-25T18:42:15.329Z,68.20
2018-03-25T18:43:38.480Z,68.33